sensor_id;sensor_type;location;lat;lon;timestamp;P1;durP1;ratioP1;P2;durP2;ratioP2
63807;SDS011;49961;43.970;22.868;2023-03-14T00:00:48;20.30;;;14.47;;
63807;SDS011;49961;43.970;22.868;2023-03-14T00:01:48;18.27;;;13.67;;
63807;SDS011;49961;43.970;22.868;2023-03-14T00:02:52;20.07;;;15.17;;
63807;SDS011;49961;43.970;22.868;2023-03-14T00:03:53;16.83;;;13.32;;
63807;SDS011;49961;43.970;22.868;2023-03-14T00:04:54;19.27;;;14.17;;
63807;SDS011;49961;43.970;22.868;2023-03-14T00:05:56;18.38;;;14.05;;
63807;SDS011;49961;43.970;22.868;2023-03-14T00:06:56;19.57;;;13.97;;
63807;SDS011;49961;43.970;22.868;2023-03-14T00:07:57;21.50;;;15.33;;
63807;SDS011;49961;43.970;22.868;2023-03-14T00:08:57;28.93;;;15.77;;
63807;SDS011;49961;43.970;22.868;2023-03-14T00:09:58;34.63;;;15.97;;
63807;SDS011;49961;43.970;22.868;2023-03-14T00:11:03;37.20;;;18.27;;
63807;SDS011;49961;43.970;22.868;2023-03-14T00:12:04;34.05;;;16.85;;
63807;SDS011;49961;43.970;22.868;2023-03-14T00:13:07;32.83;;;16.45;;
63807;SDS011;49961;43.970;22.868;2023-03-14T00:14:08;35.20;;;17.23;;
63807;SDS011;49961;43.970;22.868;2023-03-14T00:15:08;32.33;;;16.77;;
63807;SDS011;49961;43.970;22.868;2023-03-14T00:16:10;34.42;;;16.33;;
63807;SDS011;49961;43.970;22.868;2023-03-14T00:17:12;35.80;;;17.00;;
63807;SDS011;49961;43.970;22.868;2023-03-14T00:18:13;35.65;;;17.65;;
63807;SDS011;49961;43.970;22.868;2023-03-14T00:19:14;39.73;;;17.23;;
63807;SDS011;49961;43.970;22.868;2023-03-14T00:20:14;41.23;;;18.33;;
63807;SDS011;49961;43.970;22.868;2023-03-14T00:21:15;51.77;;;18.23;;
63807;SDS011;49961;43.970;22.868;2023-03-14T00:22:15;43.57;;;17.67;;
63807;SDS011;49961;43.970;22.868;2023-03-14T00:23:16;46.33;;;17.30;;
63807;SDS011;49961;43.970;22.868;2023-03-14T00:24:16;43.93;;;18.37;;
63807;SDS011;49961;43.970;22.868;2023-03-14T00:25:17;37.03;;;17.27;;
63807;SDS011;49961;43.970;22.868;2023-03-14T00:26:18;24.43;;;15.30;;
63807;SDS011;49961;43.970;22.868;2023-03-14T00:27:20;20.95;;;14.55;;
63807;SDS011;49961;43.970;22.868;2023-03-14T00:28:21;20.30;;;14.90;;
63807;SDS011;49961;43.970;22.868;2023-03-14T00:29:21;20.23;;;15.60;;
63807;SDS011;49961;43.970;22.868;2023-03-14T00:30:22;17.97;;;15.10;;
63807;SDS011;49961;43.970;22.868;2023-03-14T00:31:22;21.30;;;15.50;;
63807;SDS011;49961;43.970;22.868;2023-03-14T00:32:23;19.60;;;14.83;;
63807;SDS011;49961;43.970;22.868;2023-03-14T00:33:23;23.00;;;15.43;;
63807;SDS011;49961;43.970;22.868;2023-03-14T00:34:26;20.17;;;14.87;;
63807;SDS011;49961;43.970;22.868;2023-03-14T00:35:28;18.50;;;14.57;;
63807;SDS011;49961;43.970;22.868;2023-03-14T00:36:29;20.90;;;15.20;;
63807;SDS011;49961;43.970;22.868;2023-03-14T00:37:29;20.10;;;14.03;;
63807;SDS011;49961;43.970;22.868;2023-03-14T00:38:30;20.67;;;14.07;;
63807;SDS011;49961;43.970;22.868;2023-03-14T00:39:31;20.30;;;15.18;;
63807;SDS011;49961;43.970;22.868;2023-03-14T00:40:32;20.50;;;13.53;;
63807;SDS011;49961;43.970;22.868;2023-03-14T00:41:32;19.30;;;13.50;;
63807;SDS011;49961;43.970;22.868;2023-03-14T00:42:33;18.70;;;13.37;;
63807;SDS011;49961;43.970;22.868;2023-03-14T00:43:33;18.17;;;13.00;;
63807;SDS011;49961;43.970;22.868;2023-03-14T00:44:34;15.90;;;12.53;;
63807;SDS011;49961;43.970;22.868;2023-03-14T00:45:35;17.03;;;13.03;;
63807;SDS011;49961;43.970;22.868;2023-03-14T00:46:35;16.07;;;13.10;;
63807;SDS011;49961;43.970;22.868;2023-03-14T00:47:35;17.60;;;12.87;;
63807;SDS011;49961;43.970;22.868;2023-03-14T00:48:36;15.57;;;12.47;;
63807;SDS011;49961;43.970;22.868;2023-03-14T00:49:37;14.87;;;11.80;;
63807;SDS011;49961;43.970;22.868;2023-03-14T00:50:37;15.20;;;11.53;;
63807;SDS011;49961;43.970;22.868;2023-03-14T00:51:38;13.87;;;10.80;;
63807;SDS011;49961;43.970;22.868;2023-03-14T00:52:38;13.13;;;10.97;;
63807;SDS011;49961;43.970;22.868;2023-03-14T00:53:39;13.73;;;10.83;;
63807;SDS011;49961;43.970;22.868;2023-03-14T00:54:39;15.37;;;10.87;;
63807;SDS011;49961;43.970;22.868;2023-03-14T00:55:40;15.20;;;10.70;;
63807;SDS011;49961;43.970;22.868;2023-03-14T00:56:42;13.30;;;9.65;;
63807;SDS011;49961;43.970;22.868;2023-03-14T00:57:43;12.20;;;9.80;;
63807;SDS011;49961;43.970;22.868;2023-03-14T00:58:44;13.57;;;10.20;;
63807;SDS011;49961;43.970;22.868;2023-03-14T00:59:44;14.73;;;9.77;;
63807;SDS011;49961;43.970;22.868;2023-03-14T01:00:45;13.67;;;10.93;;
63807;SDS011;49961;43.970;22.868;2023-03-14T01:01:46;13.68;;;11.13;;
63807;SDS011;49961;43.970;22.868;2023-03-14T01:02:46;15.03;;;10.90;;
63807;SDS011;49961;43.970;22.868;2023-03-14T01:03:47;14.30;;;11.00;;
63807;SDS011;49961;43.970;22.868;2023-03-14T01:04:48;12.80;;;11.07;;
63807;SDS011;49961;43.970;22.868;2023-03-14T01:05:49;15.27;;;10.70;;
63807;SDS011;49961;43.970;22.868;2023-03-14T01:06:50;14.10;;;11.10;;
63807;SDS011;49961;43.970;22.868;2023-03-14T01:07:51;14.80;;;10.73;;
63807;SDS011;49961;43.970;22.868;2023-03-14T01:08:51;12.70;;;9.33;;
63807;SDS011;49961;43.970;22.868;2023-03-14T01:09:52;13.65;;;10.10;;
63807;SDS011;49961;43.970;22.868;2023-03-14T01:10:53;13.30;;;10.43;;
63807;SDS011;49961;43.970;22.868;2023-03-14T01:11:53;20.43;;;15.37;;
63807;SDS011;49961;43.970;22.868;2023-03-14T01:12:54;16.73;;;13.47;;
63807;SDS011;49961;43.970;22.868;2023-03-14T01:13:54;18.90;;;14.90;;
63807;SDS011;49961;43.970;22.868;2023-03-14T01:14:55;24.07;;;18.00;;
63807;SDS011;49961;43.970;22.868;2023-03-14T01:16:00;23.00;;;17.50;;
63807;SDS011;49961;43.970;22.868;2023-03-14T01:17:01;24.20;;;17.58;;
63807;SDS011;49961;43.970;22.868;2023-03-14T01:18:02;28.40;;;17.93;;
63807;SDS011;49961;43.970;22.868;2023-03-14T01:19:03;30.65;;;18.40;;
63807;SDS011;49961;43.970;22.868;2023-03-14T01:20:04;24.80;;;18.00;;
63807;SDS011;49961;43.970;22.868;2023-03-14T01:21:10;25.48;;;17.27;;
63807;SDS011;49961;43.970;22.868;2023-03-14T01:22:13;24.67;;;18.10;;
63807;SDS011;49961;43.970;22.868;2023-03-14T01:23:13;24.37;;;17.03;;
63807;SDS011;49961;43.970;22.868;2023-03-14T01:24:14;25.03;;;17.00;;
63807;SDS011;49961;43.970;22.868;2023-03-14T01:25:15;25.77;;;17.43;;
63807;SDS011;49961;43.970;22.868;2023-03-14T01:26:17;24.40;;;17.42;;
63807;SDS011;49961;43.970;22.868;2023-03-14T01:27:19;22.65;;;17.35;;
63807;SDS011;49961;43.970;22.868;2023-03-14T01:28:19;21.33;;;17.50;;
63807;SDS011;49961;43.970;22.868;2023-03-14T01:29:20;24.23;;;17.40;;
63807;SDS011;49961;43.970;22.868;2023-03-14T01:30:20;22.57;;;17.13;;
63807;SDS011;49961;43.970;22.868;2023-03-14T01:31:21;24.40;;;18.10;;
63807;SDS011;49961;43.970;22.868;2023-03-14T01:32:22;21.63;;;17.73;;
63807;SDS011;49961;43.970;22.868;2023-03-14T01:33:23;25.30;;;17.85;;
63807;SDS011;49961;43.970;22.868;2023-03-14T01:34:24;22.17;;;16.40;;
63807;SDS011;49961;43.970;22.868;2023-03-14T01:35:24;21.27;;;16.60;;
63807;SDS011;49961;43.970;22.868;2023-03-14T01:36:25;22.23;;;16.50;;
63807;SDS011;49961;43.970;22.868;2023-03-14T01:37:25;21.17;;;15.57;;
63807;SDS011;49961;43.970;22.868;2023-03-14T01:38:26;25.87;;;18.70;;
63807;SDS011;49961;43.970;22.868;2023-03-14T01:39:26;26.03;;;18.77;;
63807;SDS011;49961;43.970;22.868;2023-03-14T01:40:28;25.73;;;18.48;;
63807;SDS011;49961;43.970;22.868;2023-03-14T01:41:28;24.83;;;19.53;;
63807;SDS011;49961;43.970;22.868;2023-03-14T01:42:29;25.20;;;19.60;;
63807;SDS011;49961;43.970;22.868;2023-03-14T01:43:29;23.80;;;17.70;;
63807;SDS011;49961;43.970;22.868;2023-03-14T01:44:50;24.98;;;17.77;;
63807;SDS011;49961;43.970;22.868;2023-03-14T01:46:37;23.00;;;17.02;;
63807;SDS011;49961;43.970;22.868;2023-03-14T01:47:45;22.77;;;16.88;;
63807;SDS011;49961;43.970;22.868;2023-03-14T01:50:06;20.55;;;16.17;;
63807;SDS011;49961;43.970;22.868;2023-03-14T01:51:11;26.75;;;17.40;;
63807;SDS011;49961;43.970;22.868;2023-03-14T01:52:51;20.42;;;16.00;;
63807;SDS011;49961;43.970;22.868;2023-03-14T01:53:47;23.90;;;14.95;;
63807;SDS011;49961;43.970;22.868;2023-03-14T01:54:51;33.13;;;16.65;;
63807;SDS011;49961;43.970;22.868;2023-03-14T01:55:55;42.13;;;17.58;;
63807;SDS011;49961;43.970;22.868;2023-03-14T01:56:59;34.95;;;16.98;;
63807;SDS011;49961;43.970;22.868;2023-03-14T01:58:10;22.20;;;14.40;;
63807;SDS011;49961;43.970;22.868;2023-03-14T01:59:11;18.60;;;14.07;;
63807;SDS011;49961;43.970;22.868;2023-03-14T02:00:13;20.90;;;13.80;;
63807;SDS011;49961;43.970;22.868;2023-03-14T02:01:21;17.42;;;14.15;;
63807;SDS011;49961;43.970;22.868;2023-03-14T02:02:25;16.30;;;13.50;;
63807;SDS011;49961;43.970;22.868;2023-03-14T02:03:27;19.48;;;13.32;;
63807;SDS011;49961;43.970;22.868;2023-03-14T02:04:31;18.88;;;13.57;;
63807;SDS011;49961;43.970;22.868;2023-03-14T02:05:35;15.25;;;12.82;;
63807;SDS011;49961;43.970;22.868;2023-03-14T02:06:42;14.25;;;12.40;;
63807;SDS011;49961;43.970;22.868;2023-03-14T02:07:49;16.45;;;12.40;;
63807;SDS011;49961;43.970;22.868;2023-03-14T02:08:54;15.25;;;12.45;;
63807;SDS011;49961;43.970;22.868;2023-03-14T02:09:55;13.83;;;11.83;;
63807;SDS011;49961;43.970;22.868;2023-03-14T02:10:58;14.95;;;12.85;;
63807;SDS011;49961;43.970;22.868;2023-03-14T02:11:58;19.43;;;12.47;;
63807;SDS011;49961;43.970;22.868;2023-03-14T02:13:00;16.97;;;11.93;;
63807;SDS011;49961;43.970;22.868;2023-03-14T02:14:02;13.63;;;12.15;;
63807;SDS011;49961;43.970;22.868;2023-03-14T02:15:04;15.07;;;12.40;;
63807;SDS011;49961;43.970;22.868;2023-03-14T02:16:05;14.13;;;11.80;;
63807;SDS011;49961;43.970;22.868;2023-03-14T02:17:06;15.48;;;12.70;;
63807;SDS011;49961;43.970;22.868;2023-03-14T02:18:07;17.35;;;12.60;;
63807;SDS011;49961;43.970;22.868;2023-03-14T02:19:08;15.05;;;12.95;;
63807;SDS011;49961;43.970;22.868;2023-03-14T02:22:21;17.50;;;14.93;;
63807;SDS011;49961;43.970;22.868;2023-03-14T02:23:33;17.13;;;14.00;;
63807;SDS011;49961;43.970;22.868;2023-03-14T02:24:48;17.15;;;12.93;;
63807;SDS011;49961;43.970;22.868;2023-03-14T02:26:09;19.33;;;14.00;;
63807;SDS011;49961;43.970;22.868;2023-03-14T02:28:18;15.90;;;13.90;;
63807;SDS011;49961;43.970;22.868;2023-03-14T02:29:20;15.15;;;13.43;;
63807;SDS011;49961;43.970;22.868;2023-03-14T02:30:21;18.37;;;13.30;;
63807;SDS011;49961;43.970;22.868;2023-03-14T02:31:24;16.33;;;12.52;;
63807;SDS011;49961;43.970;22.868;2023-03-14T02:32:24;15.10;;;12.00;;
63807;SDS011;49961;43.970;22.868;2023-03-14T02:33:27;13.73;;;12.27;;
63807;SDS011;49961;43.970;22.868;2023-03-14T02:34:27;22.00;;;13.67;;
63807;SDS011;49961;43.970;22.868;2023-03-14T02:35:29;13.75;;;12.15;;
63807;SDS011;49961;43.970;22.868;2023-03-14T02:36:34;15.75;;;12.10;;
63807;SDS011;49961;43.970;22.868;2023-03-14T02:37:37;14.63;;;11.87;;
63807;SDS011;49961;43.970;22.868;2023-03-14T02:38:46;14.52;;;11.57;;
63807;SDS011;49961;43.970;22.868;2023-03-14T02:39:52;16.98;;;12.43;;
63807;SDS011;49961;43.970;22.868;2023-03-14T02:40:52;15.30;;;12.50;;
63807;SDS011;49961;43.970;22.868;2023-03-14T02:41:53;17.53;;;11.60;;
63807;SDS011;49961;43.970;22.868;2023-03-14T02:42:53;15.87;;;12.10;;
63807;SDS011;49961;43.970;22.868;2023-03-14T02:43:54;18.80;;;12.90;;
63807;SDS011;49961;43.970;22.868;2023-03-14T02:44:59;16.10;;;11.47;;
63807;SDS011;49961;43.970;22.868;2023-03-14T02:46:21;17.90;;;11.95;;
63807;SDS011;49961;43.970;22.868;2023-03-14T02:47:22;14.50;;;11.45;;
63807;SDS011;49961;43.970;22.868;2023-03-14T02:48:28;15.55;;;11.20;;
63807;SDS011;49961;43.970;22.868;2023-03-14T02:49:33;16.40;;;11.85;;
63807;SDS011;49961;43.970;22.868;2023-03-14T02:50:34;16.40;;;11.37;;
63807;SDS011;49961;43.970;22.868;2023-03-14T02:51:35;18.55;;;12.07;;
63807;SDS011;49961;43.970;22.868;2023-03-14T02:52:35;15.00;;;11.13;;
63807;SDS011;49961;43.970;22.868;2023-03-14T02:53:36;26.63;;;11.77;;
63807;SDS011;49961;43.970;22.868;2023-03-14T02:54:38;26.00;;;12.27;;
63807;SDS011;49961;43.970;22.868;2023-03-14T02:55:38;27.60;;;13.27;;
63807;SDS011;49961;43.970;22.868;2023-03-14T02:56:38;27.70;;;12.77;;
63807;SDS011;49961;43.970;22.868;2023-03-14T02:57:39;29.87;;;13.70;;
63807;SDS011;49961;43.970;22.868;2023-03-14T02:58:39;26.23;;;13.57;;
63807;SDS011;49961;43.970;22.868;2023-03-14T02:59:40;28.27;;;13.20;;
63807;SDS011;49961;43.970;22.868;2023-03-14T03:00:40;20.33;;;12.67;;
63807;SDS011;49961;43.970;22.868;2023-03-14T03:01:40;16.33;;;12.53;;
63807;SDS011;49961;43.970;22.868;2023-03-14T03:02:41;18.23;;;11.43;;
63807;SDS011;49961;43.970;22.868;2023-03-14T03:03:41;15.37;;;12.27;;
63807;SDS011;49961;43.970;22.868;2023-03-14T03:04:42;16.23;;;12.63;;
63807;SDS011;49961;43.970;22.868;2023-03-14T03:05:42;20.67;;;12.47;;
63807;SDS011;49961;43.970;22.868;2023-03-14T03:06:43;18.63;;;12.18;;
63807;SDS011;49961;43.970;22.868;2023-03-14T03:07:44;19.80;;;12.33;;
63807;SDS011;49961;43.970;22.868;2023-03-14T03:08:44;15.33;;;11.83;;
63807;SDS011;49961;43.970;22.868;2023-03-14T03:09:45;27.57;;;13.17;;
63807;SDS011;49961;43.970;22.868;2023-03-14T03:10:45;29.47;;;13.70;;
63807;SDS011;49961;43.970;22.868;2023-03-14T03:11:46;27.53;;;12.80;;
63807;SDS011;49961;43.970;22.868;2023-03-14T03:12:46;23.90;;;12.50;;
63807;SDS011;49961;43.970;22.868;2023-03-14T03:13:47;31.97;;;13.83;;
63807;SDS011;49961;43.970;22.868;2023-03-14T03:14:47;28.87;;;13.03;;
63807;SDS011;49961;43.970;22.868;2023-03-14T03:15:48;28.77;;;13.93;;
63807;SDS011;49961;43.970;22.868;2023-03-14T03:16:48;29.90;;;13.93;;
63807;SDS011;49961;43.970;22.868;2023-03-14T03:17:49;24.77;;;13.27;;
63807;SDS011;49961;43.970;22.868;2023-03-14T03:18:49;25.20;;;14.30;;
63807;SDS011;49961;43.970;22.868;2023-03-14T03:19:49;18.57;;;12.67;;
63807;SDS011;49961;43.970;22.868;2023-03-14T03:20:50;28.67;;;13.03;;
63807;SDS011;49961;43.970;22.868;2023-03-14T03:21:50;29.23;;;13.60;;
63807;SDS011;49961;43.970;22.868;2023-03-14T03:22:51;28.13;;;12.27;;
63807;SDS011;49961;43.970;22.868;2023-03-14T03:23:52;22.57;;;11.13;;
63807;SDS011;49961;43.970;22.868;2023-03-14T03:24:52;20.73;;;12.68;;
63807;SDS011;49961;43.970;22.868;2023-03-14T03:25:53;15.77;;;10.87;;
63807;SDS011;49961;43.970;22.868;2023-03-14T03:26:53;16.03;;;12.47;;
63807;SDS011;49961;43.970;22.868;2023-03-14T03:27:54;15.40;;;10.90;;
63807;SDS011;49961;43.970;22.868;2023-03-14T03:28:54;13.97;;;10.80;;
63807;SDS011;49961;43.970;22.868;2023-03-14T03:29:55;18.93;;;11.40;;
63807;SDS011;49961;43.970;22.868;2023-03-14T03:30:55;16.17;;;11.67;;
63807;SDS011;49961;43.970;22.868;2023-03-14T03:31:56;15.83;;;12.40;;
63807;SDS011;49961;43.970;22.868;2023-03-14T03:32:56;17.47;;;12.37;;
63807;SDS011;49961;43.970;22.868;2023-03-14T03:33:57;17.40;;;13.10;;
63807;SDS011;49961;43.970;22.868;2023-03-14T03:34:57;15.43;;;12.77;;
63807;SDS011;49961;43.970;22.868;2023-03-14T03:35:57;18.67;;;12.83;;
63807;SDS011;49961;43.970;22.868;2023-03-14T03:36:58;17.43;;;12.53;;
63807;SDS011;49961;43.970;22.868;2023-03-14T03:37:58;33.27;;;15.07;;
63807;SDS011;49961;43.970;22.868;2023-03-14T03:38:59;42.07;;;15.00;;
63807;SDS011;49961;43.970;22.868;2023-03-14T03:39:59;41.00;;;14.87;;
63807;SDS011;49961;43.970;22.868;2023-03-14T03:41:07;33.43;;;14.97;;
63807;SDS011;49961;43.970;22.868;2023-03-14T03:42:07;31.77;;;14.25;;
63807;SDS011;49961;43.970;22.868;2023-03-14T03:43:08;18.47;;;12.50;;
63807;SDS011;49961;43.970;22.868;2023-03-14T03:44:08;13.97;;;11.43;;
63807;SDS011;49961;43.970;22.868;2023-03-14T03:45:09;19.40;;;12.07;;
63807;SDS011;49961;43.970;22.868;2023-03-14T03:46:09;15.37;;;11.37;;
63807;SDS011;49961;43.970;22.868;2023-03-14T03:47:10;21.37;;;12.37;;
63807;SDS011;49961;43.970;22.868;2023-03-14T03:48:10;17.13;;;11.77;;
63807;SDS011;49961;43.970;22.868;2023-03-14T03:49:11;17.83;;;11.73;;
63807;SDS011;49961;43.970;22.868;2023-03-14T03:50:11;13.23;;;10.77;;
63807;SDS011;49961;43.970;22.868;2023-03-14T03:51:13;17.83;;;12.17;;
63807;SDS011;49961;43.970;22.868;2023-03-14T03:52:14;22.58;;;13.38;;
63807;SDS011;49961;43.970;22.868;2023-03-14T03:53:15;14.93;;;11.80;;
63807;SDS011;49961;43.970;22.868;2023-03-14T03:54:15;20.43;;;12.60;;
63807;SDS011;49961;43.970;22.868;2023-03-14T03:55:15;19.03;;;12.67;;
63807;SDS011;49961;43.970;22.868;2023-03-14T03:56:16;15.47;;;12.03;;
63807;SDS011;49961;43.970;22.868;2023-03-14T03:57:17;16.27;;;11.23;;
63807;SDS011;49961;43.970;22.868;2023-03-14T03:58:17;14.17;;;10.87;;
63807;SDS011;49961;43.970;22.868;2023-03-14T03:59:18;16.00;;;11.50;;
63807;SDS011;49961;43.970;22.868;2023-03-14T04:00:18;15.07;;;11.33;;
63807;SDS011;49961;43.970;22.868;2023-03-14T04:01:19;15.20;;;11.27;;
63807;SDS011;49961;43.970;22.868;2023-03-14T04:02:19;14.10;;;10.90;;
63807;SDS011;49961;43.970;22.868;2023-03-14T04:03:20;13.83;;;10.83;;
63807;SDS011;49961;43.970;22.868;2023-03-14T04:04:20;17.37;;;11.13;;
63807;SDS011;49961;43.970;22.868;2023-03-14T04:05:21;16.30;;;10.73;;
63807;SDS011;49961;43.970;22.868;2023-03-14T04:06:22;15.03;;;11.30;;
63807;SDS011;49961;43.970;22.868;2023-03-14T04:07:23;25.45;;;10.85;;
63807;SDS011;49961;43.970;22.868;2023-03-14T04:08:23;15.77;;;11.23;;
63807;SDS011;49961;43.970;22.868;2023-03-14T04:09:24;18.27;;;11.00;;
63807;SDS011;49961;43.970;22.868;2023-03-14T04:10:24;25.93;;;12.23;;
63807;SDS011;49961;43.970;22.868;2023-03-14T04:11:25;22.20;;;12.43;;
63807;SDS011;49961;43.970;22.868;2023-03-14T04:12:25;24.63;;;11.60;;
63807;SDS011;49961;43.970;22.868;2023-03-14T04:13:26;20.37;;;12.27;;
63807;SDS011;49961;43.970;22.868;2023-03-14T04:14:27;27.67;;;11.38;;
63807;SDS011;49961;43.970;22.868;2023-03-14T04:15:28;24.57;;;12.07;;
63807;SDS011;49961;43.970;22.868;2023-03-14T04:16:28;25.47;;;12.00;;
63807;SDS011;49961;43.970;22.868;2023-03-14T04:17:31;18.80;;;11.70;;
63807;SDS011;49961;43.970;22.868;2023-03-14T04:18:31;17.53;;;11.27;;
63807;SDS011;49961;43.970;22.868;2023-03-14T04:19:32;20.73;;;11.63;;
63807;SDS011;49961;43.970;22.868;2023-03-14T04:20:34;18.67;;;11.80;;
63807;SDS011;49961;43.970;22.868;2023-03-14T04:21:34;41.60;;;14.05;;
63807;SDS011;49961;43.970;22.868;2023-03-14T04:22:35;41.97;;;13.93;;
63807;SDS011;49961;43.970;22.868;2023-03-14T04:23:35;35.77;;;12.80;;
63807;SDS011;49961;43.970;22.868;2023-03-14T04:24:36;45.30;;;13.17;;
63807;SDS011;49961;43.970;22.868;2023-03-14T04:25:37;31.93;;;12.77;;
63807;SDS011;49961;43.970;22.868;2023-03-14T04:26:37;28.67;;;11.90;;
63807;SDS011;49961;43.970;22.868;2023-03-14T04:27:38;23.73;;;11.30;;
63807;SDS011;49961;43.970;22.868;2023-03-14T04:28:38;20.17;;;11.93;;
63807;SDS011;49961;43.970;22.868;2023-03-14T04:29:39;22.70;;;12.10;;
63807;SDS011;49961;43.970;22.868;2023-03-14T04:30:39;29.03;;;12.73;;
63807;SDS011;49961;43.970;22.868;2023-03-14T04:31:39;20.97;;;12.43;;
63807;SDS011;49961;43.970;22.868;2023-03-14T04:32:40;24.60;;;12.87;;
63807;SDS011;49961;43.970;22.868;2023-03-14T04:33:40;29.77;;;13.57;;
63807;SDS011;49961;43.970;22.868;2023-03-14T04:34:41;22.90;;;13.37;;
63807;SDS011;49961;43.970;22.868;2023-03-14T04:35:41;21.10;;;13.47;;
63807;SDS011;49961;43.970;22.868;2023-03-14T04:36:42;29.40;;;13.87;;
63807;SDS011;49961;43.970;22.868;2023-03-14T04:37:42;38.17;;;15.30;;
63807;SDS011;49961;43.970;22.868;2023-03-14T04:38:43;22.97;;;13.93;;
63807;SDS011;49961;43.970;22.868;2023-03-14T04:39:43;20.90;;;12.73;;
63807;SDS011;49961;43.970;22.868;2023-03-14T04:40:44;20.17;;;13.37;;
63807;SDS011;49961;43.970;22.868;2023-03-14T04:41:44;24.20;;;13.90;;
63807;SDS011;49961;43.970;22.868;2023-03-14T04:42:45;22.27;;;13.15;;
63807;SDS011;49961;43.970;22.868;2023-03-14T04:43:46;25.63;;;12.50;;
63807;SDS011;49961;43.970;22.868;2023-03-14T04:44:46;24.53;;;12.63;;
63807;SDS011;49961;43.970;22.868;2023-03-14T04:45:49;22.38;;;12.90;;
63807;SDS011;49961;43.970;22.868;2023-03-14T04:46:49;24.67;;;12.47;;
63807;SDS011;49961;43.970;22.868;2023-03-14T04:47:50;19.27;;;12.30;;
63807;SDS011;49961;43.970;22.868;2023-03-14T04:48:50;20.73;;;12.97;;
63807;SDS011;49961;43.970;22.868;2023-03-14T04:49:51;32.13;;;13.67;;
63807;SDS011;49961;43.970;22.868;2023-03-14T04:50:51;28.63;;;13.40;;
63807;SDS011;49961;43.970;22.868;2023-03-14T04:51:52;27.00;;;13.90;;
63807;SDS011;49961;43.970;22.868;2023-03-14T04:52:52;17.00;;;12.30;;
63807;SDS011;49961;43.970;22.868;2023-03-14T04:53:53;19.23;;;12.60;;
63807;SDS011;49961;43.970;22.868;2023-03-14T04:54:54;16.13;;;12.68;;
63807;SDS011;49961;43.970;22.868;2023-03-14T04:55:55;15.87;;;11.60;;
63807;SDS011;49961;43.970;22.868;2023-03-14T04:56:55;17.13;;;12.63;;
63807;SDS011;49961;43.970;22.868;2023-03-14T04:57:56;22.07;;;12.40;;
63807;SDS011;49961;43.970;22.868;2023-03-14T04:58:56;15.87;;;11.80;;
63807;SDS011;49961;43.970;22.868;2023-03-14T04:59:57;19.63;;;12.67;;
63807;SDS011;49961;43.970;22.868;2023-03-14T05:01:01;17.57;;;12.53;;
63807;SDS011;49961;43.970;22.868;2023-03-14T05:02:04;36.45;;;13.32;;
63807;SDS011;49961;43.970;22.868;2023-03-14T05:03:05;30.27;;;12.90;;
63807;SDS011;49961;43.970;22.868;2023-03-14T05:04:05;36.07;;;13.77;;
63807;SDS011;49961;43.970;22.868;2023-03-14T05:05:06;21.30;;;12.60;;
63807;SDS011;49961;43.970;22.868;2023-03-14T05:06:06;24.80;;;13.00;;
63807;SDS011;49961;43.970;22.868;2023-03-14T05:07:07;26.93;;;14.03;;
63807;SDS011;49961;43.970;22.868;2023-03-14T05:08:08;25.57;;;13.43;;
63807;SDS011;49961;43.970;22.868;2023-03-14T05:09:09;19.05;;;13.57;;
63807;SDS011;49961;43.970;22.868;2023-03-14T05:10:09;22.27;;;13.07;;
63807;SDS011;49961;43.970;22.868;2023-03-14T05:11:10;18.77;;;12.95;;
63807;SDS011;49961;43.970;22.868;2023-03-14T05:12:12;21.77;;;13.27;;
63807;SDS011;49961;43.970;22.868;2023-03-14T05:13:12;19.77;;;13.63;;
63807;SDS011;49961;43.970;22.868;2023-03-14T05:14:13;23.20;;;15.10;;
63807;SDS011;49961;43.970;22.868;2023-03-14T05:15:13;31.30;;;16.27;;
63807;SDS011;49961;43.970;22.868;2023-03-14T05:16:14;30.10;;;16.80;;
63807;SDS011;49961;43.970;22.868;2023-03-14T05:17:14;39.07;;;16.40;;
63807;SDS011;49961;43.970;22.868;2023-03-14T05:18:14;30.47;;;15.60;;
63807;SDS011;49961;43.970;22.868;2023-03-14T05:19:15;29.97;;;15.83;;
63807;SDS011;49961;43.970;22.868;2023-03-14T05:20:15;26.23;;;16.23;;
63807;SDS011;49961;43.970;22.868;2023-03-14T05:21:16;21.53;;;17.00;;
63807;SDS011;49961;43.970;22.868;2023-03-14T05:22:16;24.30;;;16.63;;
63807;SDS011;49961;43.970;22.868;2023-03-14T05:23:17;19.97;;;14.70;;
63807;SDS011;49961;43.970;22.868;2023-03-14T05:24:17;21.40;;;16.30;;
63807;SDS011;49961;43.970;22.868;2023-03-14T05:25:18;28.33;;;15.63;;
63807;SDS011;49961;43.970;22.868;2023-03-14T05:26:18;26.33;;;16.00;;
63807;SDS011;49961;43.970;22.868;2023-03-14T05:27:19;22.27;;;15.63;;
63807;SDS011;49961;43.970;22.868;2023-03-14T05:28:19;24.13;;;15.03;;
63807;SDS011;49961;43.970;22.868;2023-03-14T05:29:19;26.90;;;16.37;;
63807;SDS011;49961;43.970;22.868;2023-03-14T05:30:20;39.90;;;18.80;;
63807;SDS011;49961;43.970;22.868;2023-03-14T05:31:21;24.13;;;16.42;;
63807;SDS011;49961;43.970;22.868;2023-03-14T05:32:22;32.10;;;16.20;;
63807;SDS011;49961;43.970;22.868;2023-03-14T05:33:22;24.13;;;15.67;;
63807;SDS011;49961;43.970;22.868;2023-03-14T05:34:23;28.30;;;15.57;;
63807;SDS011;49961;43.970;22.868;2023-03-14T05:35:23;22.73;;;17.77;;
63807;SDS011;49961;43.970;22.868;2023-03-14T05:36:24;23.50;;;16.97;;
63807;SDS011;49961;43.970;22.868;2023-03-14T05:37:25;29.20;;;20.27;;
63807;SDS011;49961;43.970;22.868;2023-03-14T05:38:26;26.90;;;19.20;;
63807;SDS011;49961;43.970;22.868;2023-03-14T05:39:27;28.17;;;18.30;;
63807;SDS011;49961;43.970;22.868;2023-03-14T05:40:27;31.30;;;19.43;;
63807;SDS011;49961;43.970;22.868;2023-03-14T05:41:27;32.37;;;20.93;;
63807;SDS011;49961;43.970;22.868;2023-03-14T05:42:29;27.23;;;19.60;;
63807;SDS011;49961;43.970;22.868;2023-03-14T05:43:29;36.40;;;21.80;;
63807;SDS011;49961;43.970;22.868;2023-03-14T05:44:30;44.87;;;23.13;;
63807;SDS011;49961;43.970;22.868;2023-03-14T05:45:30;31.90;;;22.07;;
63807;SDS011;49961;43.970;22.868;2023-03-14T05:46:31;43.53;;;22.97;;
63807;SDS011;49961;43.970;22.868;2023-03-14T05:47:31;37.23;;;21.80;;
63807;SDS011;49961;43.970;22.868;2023-03-14T05:48:32;45.37;;;20.57;;
63807;SDS011;49961;43.970;22.868;2023-03-14T05:49:32;42.83;;;20.43;;
63807;SDS011;49961;43.970;22.868;2023-03-14T05:50:32;41.80;;;21.83;;
63807;SDS011;49961;43.970;22.868;2023-03-14T05:51:33;40.73;;;22.23;;
63807;SDS011;49961;43.970;22.868;2023-03-14T05:52:33;44.00;;;20.23;;
63807;SDS011;49961;43.970;22.868;2023-03-14T05:53:34;45.50;;;21.07;;
63807;SDS011;49961;43.970;22.868;2023-03-14T05:54:34;46.87;;;22.23;;
63807;SDS011;49961;43.970;22.868;2023-03-14T05:55:35;50.23;;;23.57;;
63807;SDS011;49961;43.970;22.868;2023-03-14T05:56:35;45.00;;;24.90;;
63807;SDS011;49961;43.970;22.868;2023-03-14T05:57:36;44.63;;;23.27;;
63807;SDS011;49961;43.970;22.868;2023-03-14T05:58:36;32.60;;;20.30;;
63807;SDS011;49961;43.970;22.868;2023-03-14T05:59:36;27.03;;;17.10;;